Time;durP1;ratioP1;P1;durP2;ratioP2;P2;SDS_P1;SDS_P2;PMS_P1;PMS_P2;Temp;Humidity;BMP_temperature;BMP_pressure;BME280_temperature;BME280_humidity;BME280_pressure;Samples;Min_cycle;Max_cycle;Signal;HPM_P1;HPM_P2
2023/12/05 00:00:42;;;;;;;9.47;5.37;;;;;;;-144.30;91.92;86706.72;5111788;28;20222;-59
2023/12/05 00:03:09;;;;;;;13.43;6.50;;;;;;;-144.30;92.42;86716.69;5111616;28;20198;-63
2023/12/05 00:05:36;;;;;;;10.37;5.70;;;;;;;-144.30;91.53;86657.03;5111746;28;20279;-63
2023/12/05 00:08:03;;;;;;;8.80;5.97;;;;;;;-144.30;91.85;86666.97;5111853;28;20195;-58
2023/12/05 00:10:30;;;;;;;9.10;5.90;;;;;;;-144.30;91.60;86682.88;5111887;28;20670;-59
2023/12/05 00:12:58;;;;;;;8.70;5.90;;;;;;;-144.30;91.63;86605.31;5111487;28;20202;-58
2023/12/05 00:15:24;;;;;;;14.27;6.50;;;;;;;-144.30;91.53;86686.84;5111827;27;20655;-59
2023/12/05 00:17:53;;;;;;;8.17;6.17;;;;;;;-144.30;92.33;86676.91;5111727;28;20198;-58
2023/12/05 00:20:20;;;;;;;8.73;6.60;;;;;;;-144.30;92.42;86672.94;5111343;28;20610;-62
2023/12/05 00:22:47;;;;;;;15.10;7.67;;;;;;;-144.30;92.58;86672.94;5111844;28;20732;-57
2023/12/05 00:25:14;;;;;;;6.27;5.30;;;;;;;-144.30;91.97;86657.03;5111765;28;20673;-61
2023/12/05 00:27:41;;;;;;;9.77;6.33;;;;;;;-144.30;91.48;86712.69;5111238;28;20230;-59
2023/12/05 00:30:09;;;;;;;11.13;5.90;;;;;;;-144.30;91.96;86736.56;5111126;28;20201;-63
2023/12/05 00:32:36;;;;;;;6.90;6.03;;;;;;;-144.30;92.71;86716.69;5111361;28;20201;-63
2023/12/05 00:35:05;;;;;;;8.53;6.50;;;;;;;-144.30;92.38;86680.88;5111152;28;20586;-57
2023/12/05 00:37:32;;;;;;;8.83;6.33;;;;;;;-144.30;92.59;86676.91;5111091;28;20285;-63
2023/12/05 00:39:59;;;;;;;7.10;5.97;;;;;;;-144.30;92.65;86700.78;5111452;28;20201;-59
2023/12/05 00:42:26;;;;;;;8.37;6.77;;;;;;;-144.30;91.83;86676.91;5111328;28;20224;-59
2023/12/05 00:44:52;;;;;;;7.63;6.10;;;;;;;-144.30;91.73;86668.94;5110981;28;20679;-59
2023/12/05 00:47:19;;;;;;;7.07;5.97;;;;;;;-144.30;91.77;86664.97;5110892;28;20194;-59
2023/12/05 00:49:47;;;;;;;9.90;6.43;;;;;;;-144.30;90.64;86668.94;5111004;28;20202;-63
2023/12/05 00:52:15;;;;;;;8.27;6.87;;;;;;;-144.30;90.84;86653.03;5110953;28;20190;-65
2023/12/05 00:54:42;;;;;;;7.57;6.20;;;;;;;-144.30;90.74;86688.84;5110555;28;20255;-63
2023/12/05 00:57:09;;;;;;;10.87;6.13;;;;;;;-144.30;89.30;86672.94;5110889;28;20630;-63
2023/12/05 00:59:36;;;;;;;8.27;6.60;;;;;;;-144.30;89.98;86696.78;5110453;28;20205;-62
2023/12/05 01:02:03;;;;;;;8.10;5.87;;;;;;;-144.30;89.83;86682.88;5110451;28;20225;-59
2023/12/05 01:04:30;;;;;;;8.20;6.53;;;;;;;-144.30;89.56;86692.81;5110519;28;20285;-59
2023/12/05 01:06:57;;;;;;;9.43;5.53;;;;;;;-144.30;89.47;86692.81;5110488;28;20301;-59
2023/12/05 01:09:25;;;;;;;6.77;5.73;;;;;;;-144.30;89.98;86682.88;5110793;28;20201;-58
2023/12/05 01:11:52;;;;;;;10.63;6.20;;;;;;;-144.30;90.00;86694.81;5110583;28;20202;-63
2023/12/05 01:14:19;;;;;;;8.33;6.00;;;;;;;-144.30;88.79;86686.84;5110552;28;20226;-63
2023/12/05 01:16:46;;;;;;;6.33;5.63;;;;;;;-144.30;89.35;86678.88;5110290;28;20700;-67
2023/12/05 01:19:13;;;;;;;6.93;5.23;;;;;;;-144.30;89.54;86704.75;5110556;28;20285;-59
2023/12/05 01:21:40;;;;;;;8.97;5.73;;;;;;;-144.30;89.13;86700.78;5110493;28;20257;-59
2023/12/05 01:24:07;;;;;;;9.97;6.17;;;;;;;-144.30;89.15;86662.97;5110540;28;20236;-60
2023/12/05 01:26:36;;;;;;;9.37;5.87;;;;;;;-144.30;89.20;86690.81;5110213;28;20195;-59
2023/12/05 01:29:04;;;;;;;9.53;5.37;;;;;;;-144.30;88.35;86712.69;5109685;28;20194;-62
2023/12/05 01:31:32;;;;;;;7.60;5.73;;;;;;;-144.30;88.06;86696.78;5110236;28;20223;-62
2023/12/05 01:33:58;;;;;;;6.73;5.43;;;;;;;-144.30;86.50;86684.84;5110373;28;20624;-63
2023/12/05 01:36:27;;;;;;;6.37;5.27;;;;;;;-144.30;85.22;86684.84;5110033;28;20199;-58
2023/12/05 01:38:54;;;;;;;6.30;5.20;;;;;;;-144.30;85.09;86637.13;5110283;28;20214;-58
2023/12/05 01:41:21;;;;;;;5.20;4.60;;;;;;;-144.30;85.47;86680.88;5110018;28;20724;-63
2023/12/05 01:43:49;;;;;;;7.33;5.03;;;;;;;-144.30;85.24;86692.81;5109924;28;20198;-63
2023/12/05 01:46:17;;;;;;;6.23;5.37;;;;;;;-144.30;84.49;86696.78;5110284;28;20201;-64
2023/12/05 01:48:45;;;;;;;5.67;5.07;;;;;;;-144.30;83.92;86670.94;5110723;28;20208;-63
2023/12/05 01:51:12;;;;;;;7.10;5.37;;;;;;;-144.30;82.62;86704.75;5110294;28;20190;-64
2023/12/05 01:53:40;;;;;;;6.00;5.20;;;;;;;-144.30;83.61;86676.91;5109861;28;20194;-58
2023/12/05 01:56:10;;;;;;;7.73;4.90;;;;;;;-144.30;83.72;86736.56;5109880;28;20241;-63
2023/12/05 01:58:37;;;;;;;10.03;5.73;;;;;;;-144.30;83.15;86664.97;5110292;28;20198;-59
2023/12/05 02:01:08;;;;;;;7.50;5.97;;;;;;;-144.30;83.52;86670.94;5110148;28;20191;-59
2023/12/05 02:03:36;;;;;;;8.50;5.90;;;;;;;-144.30;82.19;86595.38;5110079;28;20619;-58
2023/12/05 02:06:04;;;;;;;8.50;5.53;;;;;;;-144.30;82.95;86714.69;5109936;28;20282;-59
2023/12/05 02:08:33;;;;;;;8.13;5.73;;;;;;;-144.30;81.78;86692.81;5110031;28;20195;-58
2023/12/05 02:11:00;;;;;;;8.10;6.10;;;;;;;-144.30;82.25;86672.94;5110200;28;20286;-64
2023/12/05 02:13:27;;;;;;;7.23;5.60;;;;;;;-144.30;82.69;86668.94;5110171;28;20654;-63
2023/12/05 02:16:05;;;;;;;6.93;5.33;;;;;;;-144.30;82.40;86649.06;5110017;28;20226;-65
2023/12/05 02:18:40;;;;;;;9.03;5.50;;;;;;;-144.30;81.95;86672.94;5109713;28;20285;-58
2023/12/05 02:21:14;;;;;;;8.03;5.90;;;;;;;-144.30;82.33;86676.91;5109751;28;20190;-63
2023/12/05 02:24:00;;;;;;;8.27;5.83;;;;;;;-144.30;83.03;86979.19;5109874;28;20278;-58
2023/12/05 02:26:36;;;;;;;10.70;5.87;;;;;;;-144.30;82.89;86661.00;5110072;28;20563;-63
2023/12/05 02:29:05;;;;;;;8.57;5.93;;;;;;;-144.30;83.48;86655.03;5110076;28;20677;-64
2023/12/05 02:31:32;;;;;;;7.47;6.07;;;;;;;-144.30;83.26;86692.81;5109538;28;20191;-64
2023/12/05 02:34:00;;;;;;;8.87;5.83;;;;;;;-144.30;83.35;86688.84;5108384;28;20201;-58
2023/12/05 02:36:38;;;;;;;7.20;5.57;;;;;;;-144.30;83.32;86643.09;5092848;28;20210;-63
2023/12/05 02:39:15;;;;;;;9.87;6.07;;;;;;;-144.30;83.22;86668.94;5089575;28;20303;-60
2023/12/05 02:41:46;;;;;;;8.10;5.93;;;;;;;-144.30;82.16;86694.81;5092797;28;20234;-59
2023/12/05 02:44:17;;;;;;;7.70;5.77;;;;;;;-144.30;83.20;86736.56;5093022;28;20637;-63
2023/12/05 02:46:46;;;;;;;6.30;5.57;;;;;;;-144.30;83.55;86662.97;5092945;28;20203;-64
2023/12/05 02:49:13;;;;;;;9.10;5.73;;;;;;;-144.30;83.59;86672.94;5093235;28;20199;-58
2023/12/05 02:51:41;;;;;;;7.47;6.03;;;;;;;-144.30;82.78;86708.72;5092881;28;20199;-60
2023/12/05 02:54:08;;;;;;;9.00;6.07;;;;;;;-144.30;82.09;86348.78;5093134;28;20654;-59
2023/12/05 02:56:36;;;;;;;9.17;5.97;;;;;;;-144.30;82.95;86692.81;5092219;28;20593;-64
2023/12/05 02:59:03;;;;;;;7.00;5.60;;;;;;;-144.30;83.22;86706.72;5093193;28;20285;-59
2023/12/05 03:01:38;;;;;;;9.77;6.83;;;;;;;-144.30;88.38;86641.09;5092906;28;20223;-59
2023/12/05 03:04:05;;;;;;;11.77;7.40;;;;;;;-144.30;83.24;86664.97;5092396;28;20218;-63
2023/12/05 03:06:32;;;;;;;6.83;6.03;;;;;;;-144.30;83.08;86670.94;5092490;28;20198;-64
2023/12/05 03:09:01;;;;;;;7.67;5.60;;;;;;;-144.30;82.86;86706.72;5092719;28;20199;-64
2023/12/05 03:11:28;;;;;;;10.13;6.47;;;;;;;-144.30;82.32;86680.88;5092789;28;20231;-63
2023/12/05 03:13:55;;;;;;;8.57;6.33;;;;;;;-144.30;83.26;86712.69;5092810;28;20191;-59
2023/12/05 03:16:22;;;;;;;8.77;5.90;;;;;;;-144.30;83.49;86692.81;5092614;28;20286;-64
2023/12/05 03:18:50;;;;;;;12.57;7.13;;;;;;;-144.30;83.12;86688.84;5092475;28;20197;-59
2023/12/05 03:21:18;;;;;;;11.23;7.20;;;;;;;-144.30;83.59;86662.97;5092561;28;20673;-59
2023/12/05 03:23:45;;;;;;;15.10;7.53;;;;;;;-144.30;83.93;86722.66;5092302;28;20242;-64
2023/12/05 03:26:18;;;;;;;12.27;6.70;;;;;;;-144.30;83.01;86635.13;5092587;28;20285;-59
2023/12/05 03:28:45;;;;;;;11.17;7.10;;;;;;;-144.30;83.61;86696.78;5092419;28;20206;-64
2023/12/05 03:31:12;;;;;;;9.67;6.73;;;;;;;-144.30;84.25;86688.84;5092513;28;20293;-63
2023/12/05 03:33:39;;;;;;;12.20;7.60;;;;;;;-144.30;84.23;86678.88;5092102;28;20202;-58
2023/12/05 03:36:08;;;;;;;10.47;6.83;;;;;;;-144.30;84.40;86666.97;5092229;28;20566;-63
2023/12/05 03:38:37;;;;;;;11.13;7.57;;;;;;;-144.30;84.25;86674.91;5092055;28;20231;-59
2023/12/05 03:41:05;;;;;;;11.47;7.93;;;;;;;-144.30;84.49;87018.97;5091990;28;20258;-59
2023/12/05 03:43:32;;;;;;;12.07;7.77;;;;;;;-144.30;84.60;86676.91;5092225;28;20222;-63
2023/12/05 03:45:58;;;;;;;11.17;7.50;;;;;;;-144.30;84.00;86688.84;5092032;28;20199;-63
2023/12/05 03:48:25;;;;;;;13.43;8.17;;;;;;;-144.30;84.01;86659.00;5092034;28;20286;-62
2023/12/05 03:50:53;;;;;;;12.83;8.30;;;;;;;-144.30;84.46;86718.66;5091198;28;20220;-58
2023/12/05 03:53:21;;;;;;;17.87;9.17;;;;;;;-144.30;84.48;86643.09;5091901;28;20203;-58
2023/12/05 03:55:48;;;;;;;16.20;9.43;;;;;;;-144.30;84.31;86678.88;5092010;28;20195;-65
2023/12/05 03:58:15;;;;;;;16.23;9.13;;;;;;;-144.30;84.76;86657.03;5091816;28;20295;-62
2023/12/05 04:00:42;;;;;;;17.17;8.93;;;;;;;-144.30;85.17;86662.97;5092047;28;20277;-59
2023/12/05 04:03:09;;;;;;;15.00;9.80;;;;;;;-144.30;85.04;86645.09;5091344;28;20223;-59
2023/12/05 04:05:36;;;;;;;15.07;9.33;;;;;;;-144.30;85.38;86637.13;5091044;28;20282;-58
2023/12/05 04:08:02;;;;;;;19.73;10.17;;;;;;;-144.30;85.97;86649.06;5091450;28;20588;-59
2023/12/05 04:10:31;;;;;;;18.93;9.87;;;;;;;-144.30;86.21;86617.25;5091308;28;20285;-57
2023/12/05 04:12:58;;;;;;;22.27;11.33;;;;;;;-144.30;86.33;86653.03;5091474;28;20202;-60
2023/12/05 04:15:25;;;;;;;21.67;12.17;;;;;;;-144.30;87.72;86680.88;5091508;28;20231;-59
2023/12/05 04:17:52;;;;;;;27.17;12.23;;;;;;;-144.30;88.06;86639.13;5090964;28;20195;-64
2023/12/05 04:20:19;;;;;;;20.93;11.43;;;;;;;-144.30;87.76;86643.09;5091449;28;20687;-63
2023/12/05 04:22:46;;;;;;;22.10;11.60;;;;;;;-144.30;87.75;86668.94;5091388;28;20671;-62
2023/12/05 04:25:13;;;;;;;25.57;11.90;;;;;;;-144.30;88.18;86664.97;5091595;28;20195;-63
2023/12/05 04:27:41;;;;;;;27.00;12.57;;;;;;;-144.30;88.30;86653.03;5091086;28;20635;-59
2023/12/05 04:30:09;;;;;;;28.57;13.13;;;;;;;-144.30;88.63;86647.06;5091136;28;20191;-59
2023/12/05 04:32:36;;;;;;;27.40;12.80;;;;;;;-144.30;88.94;86662.97;5091106;28;20191;-63
2023/12/05 04:35:03;;;;;;;40.17;17.87;;;;;;;-144.30;88.99;86637.13;5091039;28;20294;-60
2023/12/05 04:37:30;;;;;;;27.87;14.53;;;;;;;-144.30;88.47;86661.00;5090869;28;20286;-64
2023/12/05 04:39:57;;;;;;;31.23;16.07;;;;;;;-144.30;87.88;86653.03;5090935;28;20195;-59
2023/12/05 04:42:24;;;;;;;29.53;14.97;;;;;;;-144.30;87.67;86649.06;5090768;28;20223;-58
2023/12/05 04:44:52;;;;;;;27.50;13.33;;;;;;;-144.30;87.43;86668.94;5090625;28;20209;-64
2023/12/05 04:47:19;;;;;;;28.03;13.83;;;;;;;-144.30;87.89;86672.94;5090864;28;20298;-64
2023/12/05 04:49:47;;;;;;;26.77;13.33;;;;;;;-144.30;87.82;86659.00;5090761;28;20199;-62
2023/12/05 04:52:14;;;;;;;26.60;13.43;;;;;;;-144.30;88.04;86651.06;5090980;28;20193;-59
2023/12/05 04:54:41;;;;;;;30.90;14.20;;;;;;;-144.30;87.31;86621.22;5091670;28;20354;-61
2023/12/05 04:57:08;;;;;;;31.80;16.60;;;;;;;-144.30;87.21;86633.16;5111144;28;20208;-61
2023/12/05 04:59:34;;;;;;;35.83;15.80;;;;;;;-144.30;87.25;86651.06;5110700;28;20220;-62
2023/12/05 05:02:03;;;;;;;28.77;15.80;;;;;;;-144.30;87.50;86653.03;5110033;28;20205;-61
2023/12/05 05:04:30;;;;;;;25.07;13.43;;;;;;;-144.30;87.33;86655.03;5110710;28;20584;-63
2023/12/05 05:06:57;;;;;;;23.53;12.67;;;;;;;-144.30;86.34;86662.97;5110862;28;20207;-58
2023/12/05 05:09:24;;;;;;;25.67;12.50;;;;;;;-144.30;86.88;86657.03;5106222;28;20214;-61
2023/12/05 05:11:50;;;;;;;31.23;13.67;;;;;;;-144.30;86.35;86615.25;5109798;28;20277;-57
2023/12/05 05:14:17;;;;;;;23.67;13.13;;;;;;;-144.30;85.73;86639.13;5110362;28;20194;-58
2023/12/05 05:16:44;;;;;;;24.60;12.40;;;;;;;-144.30;86.15;86629.19;5110297;28;20233;-59
2023/12/05 05:19:13;;;;;;;23.63;12.43;;;;;;;-144.30;85.93;86617.25;5110444;28;20747;-58
2023/12/05 05:21:39;;;;;;;22.93;11.57;;;;;;;-144.30;86.78;86668.94;5108750;28;20598;-60
2023/12/05 05:24:07;;;;;;;24.20;12.23;;;;;;;-144.30;87.93;86649.06;5110215;28;20215;-61
2023/12/05 05:26:34;;;;;;;23.53;11.73;;;;;;;-144.30;88.42;86651.06;5108756;28;20211;-60
2023/12/05 05:29:01;;;;;;;26.37;13.10;;;;;;;-144.30;88.73;86666.97;5109748;28;20283;-60
2023/12/05 05:31:28;;;;;;;27.30;12.20;;;;;;;-144.30;88.73;86629.19;5110156;28;20655;-60
2023/12/05 05:33:55;;;;;;;24.63;11.80;;;;;;;-144.30;89.20;86674.91;5110078;28;20281;-60
2023/12/05 05:36:24;;;;;;;26.27;12.27;;;;;;;-144.30;89.29;86672.94;5110253;28;20257;-59
2023/12/05 05:38:51;;;;;;;22.77;12.27;;;;;;;-144.30;89.61;86647.06;5110049;28;20636;-60
2023/12/05 05:41:18;;;;;;;22.80;11.97;;;;;;;-144.30;89.39;86625.19;5108946;28;20324;-60
2023/12/05 05:43:45;;;;;;;24.67;12.00;;;;;;;-144.30;88.98;86639.13;5110154;28;20222;-60
2023/12/05 05:46:12;;;;;;;24.10;11.77;;;;;;;-144.30;88.81;86631.16;5109067;28;20290;-61
2023/12/05 05:48:38;;;;;;;20.97;12.63;;;;;;;-144.30;89.20;86649.06;5109642;28;20285;-60
2023/12/05 05:51:06;;;;;;;31.37;12.70;;;;;;;-144.30;89.32;86623.22;5110008;28;20650;-60
2023/12/05 05:53:35;;;;;;;26.97;13.57;;;;;;;-144.30;89.78;86653.03;5109754;28;20197;-60
2023/12/05 05:56:02;;;;;;;27.10;13.30;;;;;;;-144.30;90.29;86672.94;5110226;28;20195;-61
2023/12/05 05:58:29;;;;;;;28.00;13.57;;;;;;;-144.30;89.98;86639.13;5109918;28;20281;-60
2023/12/05 06:00:56;;;;;;;27.23;12.90;;;;;;;-144.30;90.24;86657.03;5109882;28;20281;-61
2023/12/05 06:03:24;;;;;;;29.77;13.67;;;;;;;-144.30;90.60;86684.84;5109814;28;20218;-61
2023/12/05 06:05:50;;;;;;;29.53;14.80;;;;;;;-144.30;90.70;86659.00;5109996;28;20199;-61
2023/12/05 06:08:17;;;;;;;30.97;14.20;;;;;;;-144.30;90.10;86661.00;5110177;28;20333;-61
2023/12/05 06:10:46;;;;;;;30.57;13.97;;;;;;;-144.30;90.34;86676.91;5109649;28;20412;-61
2023/12/05 06:13:13;;;;;;;28.27;14.13;;;;;;;-144.30;90.56;86633.16;5109222;28;20186;-60
2023/12/05 06:15:40;;;;;;;31.37;15.27;;;;;;;-144.30;89.92;86664.97;5110330;28;20204;-60
2023/12/05 06:18:07;;;;;;;36.07;16.53;;;;;;;-144.30;90.46;86653.03;5113048;28;20195;-60
2023/12/05 06:20:34;;;;;;;35.77;16.43;;;;;;;-144.30;90.85;86621.22;5112952;28;20205;-60
2023/12/05 06:23:01;;;;;;;42.57;19.17;;;;;;;-144.30;91.37;86690.81;5112985;28;20682;-60
2023/12/05 06:25:27;;;;;;;37.70;17.60;;;;;;;-144.30;92.22;86651.06;5111662;28;20197;-60
2023/12/05 06:27:56;;;;;;;33.83;16.60;;;;;;;-144.30;92.88;86635.13;5112749;28;20214;-62
2023/12/05 06:30:23;;;;;;;36.33;16.17;;;;;;;-144.30;92.66;86692.81;5113554;28;20836;-61
2023/12/05 06:32:50;;;;;;;30.80;15.57;;;;;;;-144.30;92.79;86649.06;5113567;28;20191;-61
2023/12/05 06:35:17;;;;;;;35.20;17.10;;;;;;;-144.30;92.02;86657.03;5113287;28;20254;-61
2023/12/05 06:37:43;;;;;;;33.70;16.33;;;;;;;-144.30;91.56;86641.09;5112790;28;20620;-61
2023/12/05 06:40:11;;;;;;;34.63;15.83;;;;;;;-144.30;91.71;86617.25;5112687;28;20313;-61
2023/12/05 06:42:40;;;;;;;34.13;15.77;;;;;;;-144.30;92.50;86672.94;5112760;28;20215;-61
2023/12/05 06:45:10;;;;;;;33.03;16.87;;;;;;;-144.30;92.89;86649.06;5109827;28;20197;-59
2023/12/05 06:47:38;;;;;;;34.70;16.07;;;;;;;-144.30;91.96;86649.06;5112956;28;20624;-60
2023/12/05 06:50:10;;;;;;;36.40;18.50;;;;;;;-144.30;91.94;86627.19;5112570;28;20213;-62
2023/12/05 06:52:37;;;;;;;41.60;19.20;;;;;;;-144.30;92.11;86643.09;5112674;28;20279;-61
2023/12/05 06:55:06;;;;;;;37.10;18.10;;;;;;;-144.30;91.15;86674.91;5112579;28;20282;-61
2023/12/05 06:57:32;;;;;;;37.80;19.17;;;;;;;-144.30;91.05;86661.00;5112923;28;20201;-60
2023/12/05 06:59:59;;;;;;;39.80;18.43;;;;;;;-144.30;91.08;86645.09;5111638;28;20195;-61
2023/12/05 07:02:28;;;;;;;36.70;19.03;;;;;;;-144.30;91.19;86653.03;5110732;28;20189;-60
2023/12/05 07:04:57;;;;;;;42.37;19.07;;;;;;;-144.30;90.76;86637.13;5106835;28;20289;-58
2023/12/05 07:07:24;;;;;;;38.70;18.50;;;;;;;-144.30;90.57;86617.25;5112899;28;20206;-60
2023/12/05 07:09:51;;;;;;;44.53;22.23;;;;;;;-144.30;90.65;86589.41;5113018;27;20195;-61
2023/12/05 07:12:19;;;;;;;48.23;19.93;;;;;;;-144.30;90.15;86629.19;5112746;28;20195;-61
2023/12/05 07:14:46;;;;;;;38.83;17.93;;;;;;;-144.30;90.19;86619.22;5112421;28;20205;-61
2023/12/05 07:17:13;;;;;;;39.93;17.67;;;;;;;-144.30;90.53;86662.97;5112659;28;20216;-60
2023/12/05 07:19:41;;;;;;;39.80;16.77;;;;;;;-144.30;89.81;86585.44;5112824;28;20285;-60
2023/12/05 07:22:08;;;;;;;24.57;14.90;;;;;;;-144.30;89.20;86629.19;5112337;28;20694;-61
2023/12/05 07:24:35;;;;;;;24.70;13.93;;;;;;;-144.30;88.29;86641.09;5111584;28;20225;-61
2023/12/05 07:27:02;;;;;;;28.33;13.03;;;;;;;-144.30;87.87;86619.22;5111709;28;20736;-58
2023/12/05 07:29:29;;;;;;;25.23;14.17;;;;;;;-144.30;86.73;86601.34;5112305;28;20201;-61
2023/12/05 07:31:56;;;;;;;17.40;12.83;;;;;;;-144.30;87.36;86629.19;5112208;28;20282;-60
2023/12/05 07:34:23;;;;;;;21.63;12.47;;;;;;;-144.30;87.32;86633.16;5112498;28;20273;-62
2023/12/05 07:36:52;;;;;;;19.93;12.57;;;;;;;-144.30;86.07;86621.22;5112417;28;20205;-61
2023/12/05 07:39:19;;;;;;;23.60;12.97;;;;;;;-144.30;86.13;86609.28;5112334;28;20343;-61
2023/12/05 07:41:46;;;;;;;19.03;12.47;;;;;;;-144.30;85.96;86629.19;5111799;28;20234;-61
2023/12/05 07:44:14;;;;;;;20.07;12.20;;;;;;;-144.30;85.35;86651.06;5111452;28;20224;-61
2023/12/05 07:46:43;;;;;;;17.90;11.17;;;;;;;-144.30;85.11;86476.06;5112350;28;20689;-61
2023/12/05 07:49:11;;;;;;;20.30;11.30;;;;;;;-144.30;84.00;86573.50;5111685;28;20202;-62
2023/12/05 07:51:38;;;;;;;20.73;12.40;;;;;;;-144.30;84.19;86593.38;5111796;28;20283;-62
2023/12/05 07:54:06;;;;;;;21.43;12.07;;;;;;;-144.30;84.34;86597.34;5112040;28;20586;-60
2023/12/05 07:56:33;;;;;;;19.80;12.90;;;;;;;-144.30;83.39;86575.47;5111832;28;20539;-61
2023/12/05 07:59:00;;;;;;;22.53;13.47;;;;;;;-144.30;83.09;86577.47;5111802;28;20625;-61
2023/12/05 08:01:27;;;;;;;23.37;12.30;;;;;;;-144.30;82.90;86533.72;5111773;28;20202;-59
2023/12/05 08:03:56;;;;;;;21.57;12.23;;;;;;;-144.30;82.38;86579.47;5111721;28;20720;-59
2023/12/05 08:06:23;;;;;;;20.70;12.53;;;;;;;-144.30;81.79;86555.59;5111925;28;20198;-59
2023/12/05 08:08:50;;;;;;;20.97;13.87;;;;;;;-144.30;81.97;86573.50;5111541;28;20237;-60
2023/12/05 08:11:19;;;;;;;27.30;14.37;;;;;;;-144.30;82.28;86573.50;5110593;28;20194;-61
2023/12/05 08:13:47;;;;;;;31.80;14.13;;;;;;;-144.30;81.95;86619.22;5110571;28;20201;-60
2023/12/05 08:16:14;;;;;;;24.13;14.20;;;;;;;-144.30;81.38;86565.53;5111461;28;20194;-61
2023/12/05 08:18:41;;;;;;;21.23;13.53;;;;;;;-144.30;81.51;86579.47;5111394;28;20208;-58
2023/12/05 08:21:09;;;;;;;34.07;16.33;;;;;;;-144.30;81.60;86557.59;5111376;28;20190;-58
2023/12/05 08:23:36;;;;;;;23.30;13.90;;;;;;;-144.30;80.89;86486.00;5111019;28;20239;-63
2023/12/05 08:26:03;;;;;;;21.00;12.90;;;;;;;-144.30;80.29;86521.78;5111303;28;20635;-60
2023/12/05 08:28:32;;;;;;;25.00;13.93;;;;;;;-144.30;80.05;86549.63;5111554;28;20685;-58
2023/12/05 08:30:59;;;;;;;23.17;13.43;;;;;;;-144.30;79.97;86567.53;5111200;28;20198;-58
2023/12/05 08:33:26;;;;;;;20.83;13.33;;;;;;;-144.30;79.47;86513.84;5111311;28;20285;-59
2023/12/05 08:35:53;;;;;;;30.87;16.07;;;;;;;-144.30;79.14;86529.75;5111040;28;20250;-58
2023/12/05 08:38:20;;;;;;;24.93;13.97;;;;;;;-144.30;79.17;86537.69;5106718;28;20236;-61
2023/12/05 08:40:47;;;;;;;27.30;13.37;;;;;;;-144.30;79.45;86539.69;5110472;28;20309;-61
2023/12/05 08:43:14;;;;;;;25.67;14.33;;;;;;;-144.30;79.75;86511.84;5110643;28;20194;-61
2023/12/05 08:45:42;;;;;;;23.37;14.13;;;;;;;-144.30;79.86;86519.81;5110191;28;20200;-59
2023/12/05 08:48:09;;;;;;;27.70;14.50;;;;;;;-144.30;79.46;86517.81;5110483;28;20203;-61
2023/12/05 08:50:37;;;;;;;25.27;13.90;;;;;;;-144.30;79.05;86521.78;5110551;28;20533;-59
2023/12/05 08:53:04;;;;;;;22.20;13.27;;;;;;;-144.30;78.87;86495.94;5110158;28;20595;-59
2023/12/05 08:55:31;;;;;;;29.33;13.77;;;;;;;-144.30;78.83;86478.03;5111022;28;20666;-61
2023/12/05 08:57:58;;;;;;;22.87;13.87;;;;;;;-144.30;78.27;86541.69;5110702;28;20285;-61
2023/12/05 09:00:25;;;;;;;25.03;14.40;;;;;;;-144.30;78.02;86497.94;5109815;28;20198;-60
2023/12/05 09:02:55;;;;;;;27.13;14.50;;;;;;;-144.30;78.11;86525.75;5109190;28;20195;-61
2023/12/05 09:05:23;;;;;;;26.23;14.10;;;;;;;-144.30;77.93;86531.72;5110023;28;20223;-60
2023/12/05 09:07:50;;;;;;;22.03;13.43;;;;;;;-144.30;78.34;86211.59;5110831;28;20202;-59
2023/12/05 09:10:17;;;;;;;27.97;14.47;;;;;;;-144.30;78.08;86507.88;5110457;28;20282;-59
2023/12/05 09:12:44;;;;;;;32.17;15.83;;;;;;;-144.30;77.78;86484.00;5110307;28;20220;-59
2023/12/05 09:15:11;;;;;;;28.40;15.57;;;;;;;-144.30;77.94;86482.03;5110613;28;20194;-59
2023/12/05 09:17:38;;;;;;;26.60;13.67;;;;;;;-144.30;77.07;86497.94;5110339;28;20286;-59
2023/12/05 09:20:08;;;;;;;26.00;14.53;;;;;;;-144.30;77.53;86472.06;5110392;28;20891;-58
2023/12/05 09:22:35;;;;;;;26.03;14.23;;;;;;;-144.30;76.97;86501.91;5110618;28;20351;-58
2023/12/05 09:25:02;;;;;;;31.23;15.10;;;;;;;-144.30;76.86;86456.16;5110435;28;20218;-59
2023/12/05 09:27:29;;;;;;;25.40;14.87;;;;;;;-144.30;77.57;86472.06;5110461;28;20285;-60
2023/12/05 09:29:56;;;;;;;28.93;14.50;;;;;;;-144.30;77.60;86505.88;5110003;28;20190;-60
2023/12/05 09:32:23;;;;;;;24.03;14.83;;;;;;;-144.30;77.53;86499.91;5109639;28;20278;-60
2023/12/05 09:34:50;;;;;;;24.60;14.43;;;;;;;-144.30;77.28;86470.09;5110088;28;20982;-60
2023/12/05 09:37:18;;;;;;;28.63;15.30;;;;;;;-144.30;76.84;86714.69;5109621;28;20195;-62
2023/12/05 09:39:45;;;;;;;26.60;14.03;;;;;;;-144.30;77.07;86503.91;5109749;28;20198;-61
2023/12/05 09:42:14;;;;;;;24.67;14.87;;;;;;;-144.30;76.46;86456.16;5110048;27;20198;-59
2023/12/05 09:44:44;;;;;;;25.40;14.63;;;;;;;-144.30;76.41;86478.03;5109920;28;20214;-61
2023/12/05 09:47:12;;;;;;;23.73;13.87;;;;;;;-144.30;75.76;86466.09;5109859;28;20282;-61
2023/12/05 09:49:41;;;;;;;26.57;14.23;;;;;;;-144.30;75.76;86410.44;5109090;28;20194;-60
2023/12/05 09:52:10;;;;;;;29.40;15.20;;;;;;;-144.30;75.75;86478.03;5109611;28;20205;-60
2023/12/05 09:54:42;;;;;;;26.60;14.40;;;;;;;-144.30;76.10;86434.28;5109798;28;20200;-60
2023/12/05 09:57:11;;;;;;;25.00;14.33;;;;;;;-144.30;76.83;86456.16;5109919;28;20641;-62
2023/12/05 09:59:38;;;;;;;27.90;14.87;;;;;;;-144.30;77.33;86478.03;5110294;28;20194;-61
2023/12/05 10:02:07;;;;;;;29.00;16.23;;;;;;;-144.30;76.83;86426.34;5109788;28;20684;-62
2023/12/05 10:04:41;;;;;;;31.40;17.40;;;;;;;-144.30;76.78;86456.16;5109262;28;20226;-59
2023/12/05 10:07:11;;;;;;;36.07;16.77;;;;;;;-144.30;76.54;86390.53;5109732;28;20197;-59
2023/12/05 10:09:41;;;;;;;29.70;15.80;;;;;;;-144.30;76.70;86420.38;5109629;28;20203;-59
2023/12/05 10:12:09;;;;;;;30.73;17.13;;;;;;;-144.30;76.50;86440.25;5109386;28;20289;-60
2023/12/05 10:14:37;;;;;;;30.70;16.97;;;;;;;-144.30;77.56;86482.03;5109441;28;20199;-59
2023/12/05 10:17:05;;;;;;;33.23;18.53;;;;;;;-144.30;77.83;86486.00;5109719;28;20237;-60
2023/12/05 10:19:33;;;;;;;31.90;16.60;;;;;;;-144.30;77.78;86454.19;5109785;28;20197;-60
2023/12/05 10:22:01;;;;;;;35.97;18.93;;;;;;;-144.30;77.67;86501.91;5104808;28;20225;-61
2023/12/05 10:24:42;;;;;;;30.13;15.97;;;;;;;-144.30;77.85;86478.03;5109095;28;20218;-62
2023/12/05 10:27:09;;;;;;;27.60;15.07;;;;;;;-144.30;78.43;86489.97;5109533;28;20203;-62
2023/12/05 10:29:38;;;;;;;28.40;15.47;;;;;;;-144.30;78.86;86511.84;5109216;28;20191;-62
2023/12/05 10:32:05;;;;;;;31.13;16.50;;;;;;;-144.30;78.60;86482.03;5109622;28;20244;-60
2023/12/05 10:34:32;;;;;;;30.20;16.70;;;;;;;-144.30;79.29;86509.84;5109796;28;20201;-59
2023/12/05 10:37:03;;;;;;;33.60;18.03;;;;;;;-144.30;79.01;86487.97;5108686;28;20205;-62
2023/12/05 10:39:36;;;;;;;35.97;18.73;;;;;;;-144.30;79.93;86521.78;5109399;28;20194;-62
2023/12/05 10:42:05;;;;;;;36.63;19.27;;;;;;;-144.30;79.78;86541.69;5108666;28;20783;-62
2023/12/05 10:44:38;;;;;;;40.47;19.17;;;;;;;-144.30;79.54;86489.97;5108881;28;20623;-60
2023/12/05 10:47:06;;;;;;;37.83;20.03;;;;;;;-144.30;80.22;86499.91;5108039;28;20198;-60
2023/12/05 10:49:34;;;;;;;41.40;20.23;;;;;;;-144.30;79.54;86493.94;5108752;28;20213;-61
2023/12/05 10:52:03;;;;;;;42.13;21.97;;;;;;;-144.30;80.55;86489.97;5108917;28;20201;-59
2023/12/05 10:54:30;;;;;;;41.53;21.73;;;;;;;-144.30;80.33;86489.97;5109328;28;20207;-60
2023/12/05 10:56:57;;;;;;;39.70;21.53;;;;;;;-144.30;79.85;86513.84;5109105;28;20703;-58
2023/12/05 10:59:27;;;;;;;38.90;20.17;;;;;;;-144.30;80.28;86507.88;5108797;28;20199;-59
2023/12/05 11:01:55;;;;;;;41.83;20.70;;;;;;;-144.30;81.10;86468.09;5111595;28;20198;-59
2023/12/05 11:04:23;;;;;;;39.43;20.77;;;;;;;-144.30;81.18;86480.03;5112943;28;20218;-60
2023/12/05 11:06:50;;;;;;;36.30;19.47;;;;;;;-144.30;80.37;86523.78;5112578;28;20198;-61
2023/12/05 11:09:17;;;;;;;36.00;17.80;;;;;;;-144.30;80.39;86519.81;5112764;28;20201;-62